Time;durP1;ratioP1;P1;durP2;ratioP2;P2;SDS_P1;SDS_P2;PMS_P1;PMS_P2;Temp;Humidity;BMP_temperature;BMP_pressure;BME280_temperature;BME280_humidity;BME280_pressure;Samples;Min_cycle;Max_cycle;Signal;HPM_P1;HPM_P2
2021/12/29 00:00:53;;;;;;;54.95;27.22;;;;;;;-1.70;84.53;99414.92;1669698;85;21104;-72
2021/12/29 00:03:19;;;;;;;47.53;26.05;;;;;;;-1.70;84.54;99410.71;1667088;85;21068;-73
2021/12/29 00:05:45;;;;;;;36.68;19.90;;;;;;;-1.68;84.58;99410.32;1671761;85;21120;-73
2021/12/29 00:08:11;;;;;;;55.65;25.75;;;;;;;-1.67;84.59;99402.30;1667504;85;21409;-72
2021/12/29 00:10:38;;;;;;;53.38;28.12;;;;;;;-1.65;84.58;99410.77;1640665;85;20917;-72
2021/12/29 00:13:04;;;;;;;45.70;25.65;;;;;;;-1.64;84.57;99404.88;1671761;85;21064;-73
2021/12/29 00:15:30;;;;;;;;;;;;;;;-1.64;84.53;99415.02;1669188;85;20942;-73
2021/12/29 00:17:58;;;;;;;52.90;27.90;;;;;;;-1.63;84.63;99409.53;1658701;84;20180;-73
2021/12/29 00:20:29;;;;;;;52.30;27.65;;;;;;;-1.62;84.62;99413.35;1664647;84;20914;-73
2021/12/29 00:22:57;;;;;;;52.53;26.90;;;;;;;-1.60;84.60;99415.91;1670848;85;20909;-73
2021/12/29 00:25:24;;;;;;;47.45;26.17;;;;;;;-1.61;84.60;99413.78;1674300;85;20914;-73
2021/12/29 00:27:50;;;;;;;53.20;26.85;;;;;;;-1.61;84.58;99413.78;1662901;84;20917;-73
2021/12/29 00:30:16;;;;;;;57.58;28.42;;;;;;;-1.60;84.61;99414.64;1658509;85;20906;-73
2021/12/29 00:32:42;;;;;;;39.10;19.92;;;;;;;-1.60;84.64;99409.16;1673962;84;20930;-73
2021/12/29 00:35:11;;;;;;;53.08;27.93;;;;;;;-1.59;84.65;99417.61;1664139;85;20929;-73
2021/12/29 00:37:37;;;;;;;47.90;24.15;;;;;;;-1.60;84.64;99418.03;1674114;85;20962;-73
2021/12/29 00:40:04;;;;;;;56.33;28.20;;;;;;;-1.58;84.68;99423.97;1674192;85;20946;-73
2021/12/29 00:42:30;;;;;;;52.53;25.82;;;;;;;-1.57;84.65;99428.63;1668453;84;20969;-73
2021/12/29 00:44:56;;;;;;;51.37;26.85;;;;;;;-1.56;84.67;99427.79;1647767;85;20933;-73
2021/12/29 00:47:22;;;;;;;50.08;25.77;;;;;;;-1.57;84.67;99432.01;1674243;85;20937;-73
2021/12/29 00:49:48;;;;;;;49.35;24.92;;;;;;;-1.55;84.68;99439.19;1672488;84;22023;-73
2021/12/29 00:52:14;;;;;;;52.80;27.35;;;;;;;-1.54;84.70;99442.16;1666860;85;20931;-73
2021/12/29 00:54:43;;;;;;;48.60;24.92;;;;;;;-1.53;84.71;99444.27;1649653;85;20886;-73
2021/12/29 00:57:09;;;;;;;48.45;25.60;;;;;;;-1.53;84.70;99447.66;1676402;84;21488;-73
2021/12/29 00:59:35;;;;;;;51.18;24.75;;;;;;;-1.53;84.72;99442.59;1667856;85;20914;-73
2021/12/29 01:02:01;;;;;;;50.78;27.17;;;;;;;-1.53;84.74;99448.93;1666363;85;21201;-73
2021/12/29 01:04:27;;;;;;;52.65;27.15;;;;;;;-1.51;84.74;99447.27;1667013;84;20886;-73
2021/12/29 01:06:54;;;;;;;52.70;27.58;;;;;;;-1.50;84.77;99448.12;1674117;85;20906;-73
2021/12/29 01:09:20;;;;;;;51.48;27.13;;;;;;;-1.50;84.75;99441.78;1668572;85;20885;-73
2021/12/29 01:11:46;;;;;;;52.88;27.62;;;;;;;-1.48;84.80;99444.77;1674659;84;20917;-73
2021/12/29 01:14:12;;;;;;;46.42;24.55;;;;;;;-1.48;84.79;99442.66;1674357;85;20981;-72
2021/12/29 01:16:39;;;;;;;53.45;27.10;;;;;;;-1.46;84.81;99447.33;1673685;84;20901;-73
2021/12/29 01:19:17;;;;;;;51.33;26.85;;;;;;;-1.50;84.76;99439.25;1663580;85;20925;-73
2021/12/29 01:21:47;;;;;;;50.83;26.93;;;;;;;-1.47;84.80;99450.28;1670706;85;20977;-73
2021/12/29 01:24:14;;;;;;;51.48;26.90;;;;;;;-1.47;84.80;99451.55;1673620;85;20918;-73
2021/12/29 01:26:42;;;;;;;60.28;29.07;;;;;;;-1.45;84.83;99452.84;1669841;85;20894;-73
2021/12/29 01:29:11;;;;;;;50.83;26.33;;;;;;;-1.45;84.80;99450.30;1671045;85;21542;-73
2021/12/29 01:31:37;;;;;;;49.80;26.10;;;;;;;-1.45;84.77;99449.88;1668988;85;20910;-73
2021/12/29 01:34:05;;;;;;;48.78;26.17;;;;;;;-1.45;84.80;99454.95;1667434;84;21025;-73
2021/12/29 01:36:33;;;;;;;49.10;25.75;;;;;;;-1.43;84.83;99456.24;1652024;85;20890;-73
2021/12/29 01:39:01;;;;;;;47.20;25.65;;;;;;;-1.43;84.82;99460.90;1677028;84;20888;-73
2021/12/29 01:41:27;;;;;;;51.28;26.40;;;;;;;-1.42;84.85;99465.14;1676808;85;21344;-73
2021/12/29 01:43:53;;;;;;;51.65;27.90;;;;;;;-1.41;84.86;99462.19;1688237;83;20905;-73
2021/12/29 01:46:20;;;;;;;61.68;31.90;;;;;;;-1.39;84.87;99469.40;1668748;83;20945;-73
2021/12/29 01:48:46;;;;;;;51.23;27.80;;;;;;;-1.39;84.86;99471.52;1668615;85;20951;-73
2021/12/29 01:51:13;;;;;;;55.33;28.17;;;;;;;-1.37;84.83;99470.27;1671426;85;20958;-73
2021/12/29 01:53:47;;;;;;;53.02;26.95;;;;;;;-1.37;84.84;99468.59;1674258;83;20942;-73
2021/12/29 01:56:07;;;;;;;52.65;27.65;;;;;;;-1.36;84.83;99469.02;1678675;85;20867;-73
2021/12/29 01:58:33;;;;;;;57.25;27.42;;;;;;;-1.34;84.88;99469.90;1667915;85;20950;-73
2021/12/29 02:01:00;;;;;;;54.65;26.75;;;;;;;-1.32;84.87;99473.72;1666210;84;21663;-72
2021/12/29 02:03:25;;;;;;;;;;;;;;;-1.32;84.85;99475.41;1671730;85;21259;-73
2021/12/29 02:05:53;;;;;;;51.13;25.12;;;;;;;-1.31;84.89;99478.38;1690685;83;20224;-73
2021/12/29 02:08:22;;;;;;;50.55;27.25;;;;;;;-1.31;84.87;99474.57;1690320;84;21049;-73
2021/12/29 02:10:48;;;;;;;59.23;27.82;;;;;;;-1.30;84.88;99478.39;1689841;84;21374;-73
2021/12/29 02:13:15;;;;;;;51.60;27.40;;;;;;;-1.30;84.84;99477.55;1679191;83;21409;-73
2021/12/29 02:15:41;;;;;;;50.17;26.62;;;;;;;-1.30;84.89;99469.94;1699374;83;21459;-73
2021/12/29 02:18:15;;;;;;;48.63;25.37;;;;;;;-1.30;84.89;99469.52;1686924;84;21417;-73
2021/12/29 02:20:49;;;;;;;47.75;25.32;;;;;;;-1.29;84.88;99462.77;1613927;84;21438;-73
2021/12/29 02:23:24;;;;;;;51.20;27.93;;;;;;;-1.30;84.89;99463.18;1574691;89;20923;-73
2021/12/29 02:25:52;;;;;;;50.43;24.87;;;;;;;-1.29;84.93;99469.95;1567141;89;21503;-73
2021/12/29 02:28:34;;;;;;;51.88;27.37;;;;;;;-1.27;84.95;99461.10;1569417;90;21482;-73
2021/12/29 02:31:03;;;;;;;45.55;26.20;;;;;;;-1.27;84.99;99466.17;1578242;89;21519;-72
2021/12/29 02:33:30;;;;;;;48.52;26.48;;;;;;;-1.25;84.98;99467.05;1577199;90;21449;-73
2021/12/29 02:35:59;;;;;;;52.50;26.93;;;;;;;-1.24;84.99;99462.41;1570537;90;20942;-73
2021/12/29 02:38:31;;;;;;;53.25;26.62;;;;;;;-1.25;84.97;99464.52;1577202;89;21448;-73
2021/12/29 02:41:02;;;;;;;52.10;27.80;;;;;;;-1.24;84.99;99467.48;1571658;90;21484;-73
2021/12/29 02:43:32;;;;;;;48.17;25.90;;;;;;;-1.24;85.00;99468.75;1566292;90;20946;-73
2021/12/29 02:46:00;;;;;;;53.15;27.52;;;;;;;-1.24;85.02;99467.48;1577430;90;20918;-73
2021/12/29 02:48:31;;;;;;;48.75;27.22;;;;;;;-1.25;85.03;99470.44;1577539;90;21484;-73
2021/12/29 02:50:59;;;;;;;54.20;29.75;;;;;;;-1.24;85.05;99471.28;1567636;89;21418;-73
2021/12/29 02:53:28;;;;;;;54.25;28.17;;;;;;;-1.23;85.01;99471.30;1579010;89;20899;-73
2021/12/29 02:55:55;;;;;;;53.55;29.65;;;;;;;-1.24;85.04;99470.87;1577709;89;21408;-73
2021/12/29 02:58:22;;;;;;;;;;;;;;;-1.23;85.09;99470.04;1579836;90;20962;-73
2021/12/29 03:00:49;;;;;;;52.08;27.48;;;;;;;-1.21;85.11;99467.52;1573329;89;20164;-73
2021/12/29 03:03:21;;;;;;;58.15;28.80;;;;;;;-1.20;85.13;99470.49;1550659;90;20966;-73
2021/12/29 03:05:48;;;;;;;55.40;29.48;;;;;;;-1.19;85.19;99472.20;1575579;90;21415;-73
2021/12/29 03:08:16;;;;;;;60.08;29.85;;;;;;;-1.16;85.22;99475.63;1572165;89;20980;-73
2021/12/29 03:10:43;;;;;;;59.77;29.72;;;;;;;-1.14;85.23;99479.03;1565233;90;21458;-73
2021/12/29 03:13:10;;;;;;;56.53;30.60;;;;;;;-1.13;85.21;99478.20;1567010;90;21055;-73
2021/12/29 03:15:38;;;;;;;59.55;28.75;;;;;;;-1.12;85.25;99475.25;1572144;89;20990;-73
2021/12/29 03:18:06;;;;;;;54.77;29.92;;;;;;;-1.10;85.26;99474.44;1574899;90;20999;-73
2021/12/29 03:20:33;;;;;;;56.28;30.57;;;;;;;-1.09;85.24;99476.14;1569562;90;21482;-73
2021/12/29 03:23:00;;;;;;;61.58;32.93;;;;;;;-1.08;85.24;99478.26;1578167;89;20962;-73
2021/12/29 03:25:26;;;;;;;57.70;30.57;;;;;;;-1.08;85.24;99476.58;1576085;89;20958;-73
2021/12/29 03:27:58;;;;;;;58.70;30.32;;;;;;;-1.06;85.25;99481.25;1557030;90;21514;-73
2021/12/29 03:30:28;;;;;;;56.60;30.32;;;;;;;-1.05;85.26;99477.03;1577480;90;21003;-73
2021/12/29 03:33:03;;;;;;;57.00;30.97;;;;;;;-1.05;85.28;99482.95;1584137;89;21956;-73
2021/12/29 03:35:23;;;;;;;60.10;31.48;;;;;;;-1.02;85.30;99482.11;1576222;89;21943;-73
2021/12/29 03:37:49;;;;;;;60.95;31.37;;;;;;;-1.02;85.28;99484.64;1581987;90;21478;-73
2021/12/29 03:40:15;;;;;;;60.33;30.68;;;;;;;-1.01;85.25;99487.62;1582023;90;20991;-73
2021/12/29 03:42:41;;;;;;;64.37;32.88;;;;;;;-1.03;85.27;99483.79;1576899;89;22084;-73
2021/12/29 03:45:08;;;;;;;60.25;32.30;;;;;;;-1.00;85.31;99491.86;1583222;89;21860;-73
2021/12/29 03:47:34;;;;;;;57.90;31.40;;;;;;;-1.01;85.34;99492.27;1588975;90;20946;-73
2021/12/29 03:50:00;;;;;;;59.70;32.83;;;;;;;-0.99;85.37;99492.30;1576823;90;28220;-73
2021/12/29 03:52:26;;;;;;;56.08;31.42;;;;;;;-0.98;85.38;99490.61;1577954;88;21211;-73
2021/12/29 03:54:52;;;;;;;56.85;32.50;;;;;;;-0.97;85.36;99489.77;1577679;89;20949;-73
2021/12/29 03:57:18;;;;;;;53.93;30.03;;;;;;;-0.96;85.39;99494.02;1580805;88;20953;-73
2021/12/29 03:59:44;;;;;;;56.80;30.17;;;;;;;-0.96;85.36;99496.13;1590287;88;21821;-73
2021/12/29 04:02:10;;;;;;;42.55;23.10;;;;;;;-0.96;85.36;99497.41;1582409;89;20977;-73
2021/12/29 04:04:36;;;;;;;52.13;29.02;;;;;;;-0.94;85.39;99497.42;1587685;90;21615;-73
2021/12/29 04:07:02;;;;;;;53.13;30.15;;;;;;;-0.94;85.37;99500.81;1590399;88;20950;-73
2021/12/29 04:09:28;;;;;;;57.70;30.97;;;;;;;-0.94;85.33;99502.50;1579689;88;21099;-73
2021/12/29 04:11:54;;;;;;;59.35;31.17;;;;;;;-0.94;85.36;99498.69;1584193;90;21182;-73
2021/12/29 04:14:25;;;;;;;54.15;30.55;;;;;;;-0.94;85.38;99505.03;1589402;89;21637;-72
2021/12/29 04:16:48;;;;;;;56.68;30.30;;;;;;;-0.92;85.38;99502.10;1577681;89;21164;-73
2021/12/29 04:19:29;;;;;;;53.28;28.75;;;;;;;-0.93;85.39;99505.05;1564200;90;21093;-73
2021/12/29 04:21:46;;;;;;;55.25;29.42;;;;;;;-0.93;85.39;99512.66;1586341;89;20953;-73
2021/12/29 04:24:12;;;;;;;56.45;30.17;;;;;;;-0.93;85.40;99508.86;1589284;90;20950;-73
2021/12/29 04:26:39;;;;;;;52.78;28.67;;;;;;;-0.92;85.41;99510.98;1589109;88;21601;-73
2021/12/29 04:29:08;;;;;;;55.00;29.85;;;;;;;-0.92;85.41;99513.10;1587287;88;20922;-73
2021/12/29 04:31:35;;;;;;;58.40;30.55;;;;;;;-0.92;85.43;99510.56;1584675;89;20945;-73
2021/12/29 04:34:01;;;;;;;57.88;31.50;;;;;;;-0.92;85.41;99510.56;1587954;89;20971;-73
2021/12/29 04:36:28;;;;;;;65.70;32.35;;;;;;;-0.92;85.43;99508.44;1591520;89;20930;-73
2021/12/29 04:38:58;;;;;;;54.93;30.60;;;;;;;-0.91;85.41;99518.61;1566685;90;20977;-73
2021/12/29 04:41:24;;;;;;;55.65;29.50;;;;;;;-0.92;85.43;99517.33;1578759;90;20945;-73
2021/12/29 04:43:50;;;;;;;57.98;31.82;;;;;;;-0.91;85.46;99521.56;1585945;90;20911;-73
2021/12/29 04:46:18;;;;;;;55.23;31.40;;;;;;;-0.90;85.46;99528.34;1577662;89;21003;-73
2021/12/29 04:48:51;;;;;;;52.43;29.85;;;;;;;-0.90;85.48;99527.08;1562365;89;20900;-73
2021/12/29 04:51:16;;;;;;;58.20;30.82;;;;;;;-0.90;85.44;99529.61;1572906;90;20983;-73
2021/12/29 04:53:42;;;;;;;58.23;30.97;;;;;;;-0.89;85.48;99532.59;1574154;89;20966;-73
2021/12/29 04:56:08;;;;;;;59.90;31.20;;;;;;;-0.89;85.48;99530.05;1577931;89;20997;-73
2021/12/29 04:58:34;;;;;;;51.55;29.32;;;;;;;-0.87;85.51;99525.84;1574587;90;21042;-73
2021/12/29 05:01:00;;;;;;;50.20;29.80;;;;;;;-0.86;85.51;99533.48;1572114;90;20971;-73
2021/12/29 05:03:26;;;;;;;54.42;29.72;;;;;;;-0.84;85.50;99536.03;1577826;90;20983;-73
2021/12/29 05:08:26;;;;;;;59.13;31.40;;;;;;;-0.81;85.51;99531.00;1564814;90;21066;-73
2021/12/29 05:11:00;;;;;;;62.70;32.43;;;;;;;-0.77;85.54;99536.13;1577710;90;20998;-73
2021/12/29 05:13:29;;;;;;;58.52;31.23;;;;;;;-0.77;85.53;99542.47;1575003;89;21078;-73
2021/12/29 05:15:56;;;;;;;52.20;30.35;;;;;;;-0.77;85.53;99548.82;1559968;90;21205;-73
2021/12/29 05:18:26;;;;;;;;;;;;;;;-0.76;85.54;99549.25;1557784;90;21131;-73
2021/12/29 05:20:52;;;;;;;55.12;30.60;;;;;;;-0.75;85.55;99545.88;1554501;90;20165;-73
2021/12/29 05:23:18;;;;;;;57.40;29.37;;;;;;;-0.73;85.57;99556.91;1577614;90;21006;-73
2021/12/29 05:25:45;;;;;;;63.83;33.20;;;;;;;-0.71;85.54;99560.31;1575758;89;21480;-73
2021/12/29 05:28:11;;;;;;;67.12;32.53;;;;;;;-0.71;85.55;99559.47;1577882;90;20919;-73
2021/12/29 05:30:37;;;;;;;57.45;31.02;;;;;;;-0.69;85.53;99557.80;1579270;89;20955;-73
2021/12/29 05:33:04;;;;;;;61.50;32.08;;;;;;;-0.69;85.59;99560.34;1574359;90;26739;-73
2021/12/29 05:35:30;;;;;;;;;;;;;;;-0.68;85.59;99559.50;1576234;90;20995;-73
2021/12/29 05:37:57;;;;;;;51.40;28.45;;;;;;;-0.68;85.59;99558.23;1576654;90;20299;-73
2021/12/29 05:40:25;;;;;;;57.98;31.10;;;;;;;-0.69;85.60;99563.73;1576073;89;21038;-73
2021/12/29 05:42:51;;;;;;;58.92;33.02;;;;;;;-0.68;85.62;99569.23;1563623;90;21145;-73
2021/12/29 05:45:17;;;;;;;60.78;34.10;;;;;;;-0.65;85.67;99570.11;1582866;89;21076;-73
2021/12/29 05:47:45;;;;;;;72.70;35.40;;;;;;;-0.63;85.67;99573.52;1589371;89;21088;-73
2021/12/29 05:50:15;;;;;;;62.85;34.48;;;;;;;-0.62;85.66;99581.57;1580196;88;21125;-73
2021/12/29 05:52:41;;;;;;;66.90;34.03;;;;;;;-0.62;85.66;99580.30;1586319;88;20985;-73
2021/12/29 05:55:09;;;;;;;64.65;34.78;;;;;;;-0.62;85.68;99583.69;1587462;88;21104;-73
2021/12/29 05:57:35;;;;;;;63.08;35.63;;;;;;;-0.61;85.71;99586.67;1585107;88;21125;-73
2021/12/29 06:00:05;;;;;;;59.10;32.42;;;;;;;-0.59;85.70;99591.77;1589399;90;21100;-73
2021/12/29 06:02:32;;;;;;;64.85;33.78;;;;;;;-0.59;85.69;99595.16;1577710;88;21101;-73
2021/12/29 06:04:58;;;;;;;66.82;35.38;;;;;;;-0.58;85.69;99594.73;1588859;89;21096;-73
2021/12/29 06:07:24;;;;;;;;;;;;;;;-0.57;85.72;99598.98;1587978;88;21160;-73
2021/12/29 06:09:50;;;;;;;63.20;31.45;;;;;;;-0.57;85.77;99595.17;1590758;88;20239;-73
2021/12/29 06:12:17;;;;;;;63.85;33.92;;;;;;;-0.56;85.75;99596.87;1594577;88;21009;-73
2021/12/29 06:14:44;;;;;;;53.13;27.17;;;;;;;-0.55;85.75;99605.78;1587394;88;21153;-73
2021/12/29 06:17:13;;;;;;;69.80;33.88;;;;;;;-0.55;85.72;99594.77;1579602;88;21196;-73
2021/12/29 06:19:40;;;;;;;72.12;36.45;;;;;;;-0.54;85.73;99601.14;1590081;88;21181;-73
2021/12/29 06:22:11;;;;;;;75.35;36.23;;;;;;;-0.53;85.78;99604.53;1581894;88;21086;-73
2021/12/29 06:24:42;;;;;;;70.40;35.17;;;;;;;-0.54;85.78;99602.41;1589248;88;20966;-73
2021/12/29 06:27:09;;;;;;;75.72;38.33;;;;;;;-0.53;85.77;99598.19;1588840;88;20918;-73
2021/12/29 06:29:36;;;;;;;68.83;35.45;;;;;;;-0.55;85.75;99598.17;1589955;88;20973;-73
2021/12/29 06:32:03;;;;;;;79.15;36.70;;;;;;;-0.55;85.82;99598.17;1588359;88;20973;-73
2021/12/29 06:34:30;;;;;;;68.90;33.85;;;;;;;-0.53;85.85;99602.00;1587686;88;20997;-73
2021/12/29 06:36:58;;;;;;;64.20;35.05;;;;;;;-0.53;85.80;99605.39;1590418;88;20990;-73
2021/12/29 06:39:25;;;;;;;66.37;34.60;;;;;;;-0.51;85.86;99616.38;1585016;88;21017;-73
2021/12/29 06:41:51;;;;;;;63.60;33.92;;;;;;;-0.49;85.89;99622.75;1586440;88;21029;-73
2021/12/29 06:44:17;;;;;;;62.15;34.03;;;;;;;-0.46;85.95;99629.14;1586254;88;21022;-73
2021/12/29 06:46:43;;;;;;;59.73;31.82;;;;;;;-0.43;85.93;99632.98;1571334;89;20995;-73
2021/12/29 06:49:09;;;;;;;64.35;32.65;;;;;;;-0.42;85.92;99628.34;1576617;89;21587;-73
2021/12/29 06:51:35;;;;;;;64.17;33.88;;;;;;;-0.42;85.92;99630.46;1562387;89;20990;-73
2021/12/29 06:54:01;;;;;;;63.55;33.48;;;;;;;-0.39;85.92;99641.08;1576221;89;22048;-73
2021/12/29 06:56:27;;;;;;;69.25;34.83;;;;;;;-0.37;85.97;99654.23;1580123;89;20919;-73
2021/12/29 06:58:53;;;;;;;;;;;;;;;-0.35;85.98;99655.10;1569617;89;20962;-73
2021/12/29 07:01:19;;;;;;;65.03;33.98;;;;;;;-0.34;85.96;99658.49;1573686;89;20232;-73
2021/12/29 07:03:45;;;;;;;71.77;34.27;;;;;;;-0.32;85.95;99659.78;1565803;89;20906;-73
2021/12/29 07:06:12;;;;;;;65.62;35.25;;;;;;;-0.31;85.96;99658.53;1570049;90;20963;-73
2021/12/29 07:08:40;;;;;;;62.23;33.78;;;;;;;-0.30;86.00;99658.97;1576454;89;26756;-73
2021/12/29 07:11:06;;;;;;;66.10;33.80;;;;;;;-0.27;85.99;99661.97;1576610;89;20962;-73
2021/12/29 07:13:32;;;;;;;63.40;34.03;;;;;;;-0.27;86.00;99666.63;1576180;90;20979;-73
2021/12/29 07:15:59;;;;;;;87.50;54.90;;;;;;;-0.26;85.96;99658.59;1573031;89;21508;-73
2021/12/29 07:18:25;;;;;;;66.42;35.03;;;;;;;-0.26;85.97;99660.71;1572452;89;22512;-73
2021/12/29 07:20:51;;;;;;;286.92;51.88;;;;;;;-0.25;86.00;99656.48;1617370;86;21092;-73
2021/12/29 07:23:17;;;;;;;175.78;55.98;;;;;;;-0.23;86.02;99665.83;1619444;86;21125;-73
2021/12/29 07:25:44;;;;;;;172.90;49.35;;;;;;;-0.21;86.04;99673.05;1599988;88;21492;-73
2021/12/29 07:28:12;;;;;;;188.47;68.52;;;;;;;-0.18;86.06;99678.59;1615772;86;21052;-73
2021/12/29 07:30:39;;;;;;;257.15;99.42;;;;;;;-0.14;86.07;99682.88;1613301;86;20945;-73
2021/12/29 07:33:05;;;;;;;;;;;;;;;-0.12;86.08;99685.87;1619222;86;21061;-73
2021/12/29 07:35:31;;;;;;;60.78;32.13;;;;;;;-0.11;86.03;99681.64;1620111;86;20279;-73
2021/12/29 07:37:57;;;;;;;62.53;32.63;;;;;;;-0.11;86.05;99685.03;1621272;86;21144;-73
2021/12/29 07:40:23;;;;;;;66.95;34.00;;;;;;;-0.11;86.03;99673.60;1614012;86;21092;-73
2021/12/29 07:42:49;;;;;;;67.03;34.23;;;;;;;-0.10;86.07;99682.93;1619501;86;21176;-74
2021/12/29 07:45:15;;;;;;;65.10;35.10;;;;;;;-0.07;86.11;99680.84;1598787;86;21186;-74
2021/12/29 07:47:47;;;;;;;67.75;35.40;;;;;;;-0.05;86.07;99686.80;1617955;86;21008;-75
2021/12/29 07:50:17;;;;;;;65.78;35.78;;;;;;;-0.03;86.08;99682.58;1622108;87;20949;-75
2021/12/29 07:52:47;;;;;;;64.42;34.27;;;;;;;-0.01;86.11;99687.27;1620193;86;20946;-75
2021/12/29 07:55:12;;;;;;;68.30;35.20;;;;;;;0.03;86.12;99685.58;1617557;86;20989;-74
2021/12/29 07:57:38;;;;;;;67.75;35.85;;;;;;;0.07;86.18;99694.53;1590197;88;20941;-74
2021/12/29 08:00:06;;;;;;;62.48;34.92;;;;;;;0.11;86.12;99689.06;1618070;86;21671;-74
2021/12/29 08:02:32;;;;;;;58.75;32.93;;;;;;;0.12;86.12;99691.62;1616367;87;20980;-74
2021/12/29 08:04:58;;;;;;;64.27;33.05;;;;;;;0.14;86.14;99694.18;1614679;86;20961;-74
2021/12/29 08:07:27;;;;;;;67.62;35.83;;;;;;;0.17;86.15;99704.38;1602804;86;20942;-74
2021/12/29 08:09:54;;;;;;;69.82;35.38;;;;;;;0.20;86.16;99712.89;1620780;86;20993;-75
2021/12/29 08:12:20;;;;;;;71.37;37.08;;;;;;;0.24;86.18;99725.22;1619713;86;21076;-75
2021/12/29 08:14:47;;;;;;;75.60;40.30;;;;;;;0.26;86.17;99726.95;1613471;88;21690;-74
2021/12/29 08:17:14;;;;;;;72.40;40.17;;;;;;;0.27;86.15;99723.98;1615893;88;21354;-74
2021/12/29 08:19:40;;;;;;;70.15;37.75;;;;;;;0.31;86.19;99730.39;1617881;88;21125;-74
2021/12/29 08:22:06;;;;;;;68.65;37.33;;;;;;;0.33;86.20;99729.99;1625588;86;21441;-74
2021/12/29 08:24:33;;;;;;;52.80;27.98;;;;;;;0.36;86.18;99739.77;1619294;86;20957;-74
2021/12/29 08:26:59;;;;;;;74.92;40.28;;;;;;;0.36;86.14;99735.53;1620449;86;21004;-74
2021/12/29 08:29:25;;;;;;;72.05;38.05;;;;;;;0.37;86.18;99724.52;1617677;88;21024;-74
2021/12/29 08:31:51;;;;;;;73.95;40.85;;;;;;;0.40;86.18;99733.87;1618918;86;21643;-75
2021/12/29 08:34:17;;;;;;;54.15;30.00;;;;;;;0.43;86.22;99732.64;1606551;88;21068;-75
2021/12/29 08:36:44;;;;;;;63.87;36.83;;;;;;;0.44;86.20;99733.92;1622298;88;21073;-75
2021/12/29 08:39:10;;;;;;;72.87;40.67;;;;;;;0.45;86.18;99728.42;1601550;88;21084;-75
2021/12/29 08:41:36;;;;;;;75.80;42.35;;;;;;;0.45;86.19;99729.27;1622629;86;21301;-75
2021/12/29 08:44:03;;;;;;;;;;;;;;;0.48;86.25;99731.84;1624776;88;21040;-75
2021/12/29 08:46:30;;;;;;;77.82;40.80;;;;;;;0.51;86.34;99735.70;1604835;86;20226;-75
2021/12/29 08:48:57;;;;;;;79.87;42.78;;;;;;;0.54;86.31;99738.23;1606205;89;21621;-74
2021/12/29 08:51:23;;;;;;;79.60;43.90;;;;;;;0.58;86.31;99742.94;1606311;87;20922;-75
2021/12/29 08:53:50;;;;;;;83.05;43.15;;;;;;;0.62;86.30;99746.80;1578789;89;21027;-75
2021/12/29 08:56:16;;;;;;;82.97;43.55;;;;;;;0.64;86.30;99750.21;1557401;90;25876;-75
2021/12/29 08:58:45;;;;;;;83.27;44.90;;;;;;;0.67;86.27;99746.84;1577847;89;21573;-74
2021/12/29 09:01:12;;;;;;;85.47;43.40;;;;;;;0.69;86.27;99749.41;1574752;89;21093;-74
2021/12/29 09:03:38;;;;;;;89.15;45.55;;;;;;;0.71;86.29;99756.63;1607898;87;21240;-75
2021/12/29 09:06:04;;;;;;;85.42;44.67;;;;;;;0.71;86.31;99753.67;1607272;87;21075;-74
2021/12/29 09:08:31;;;;;;;81.90;44.98;;;;;;;0.76;86.33;99752.45;1609215;87;21558;-75
2021/12/29 09:10:57;;;;;;;87.60;45.40;;;;;;;0.78;86.38;99747.80;1607193;87;21073;-75
2021/12/29 09:13:24;;;;;;;88.78;45.58;;;;;;;0.81;86.36;99744.44;1559662;90;21104;-74
2021/12/29 09:15:53;;;;;;;89.05;44.20;;;;;;;0.83;86.35;99742.34;1571950;89;21088;-74
2021/12/29 09:18:18;;;;;;;76.22;43.52;;;;;;;0.86;86.34;99747.45;1605317;87;21055;-74
2021/12/29 09:20:45;;;;;;;83.85;44.30;;;;;;;0.88;86.36;99743.66;1597528;88;21410;-73
2021/12/29 09:23:14;;;;;;;80.45;43.38;;;;;;;0.93;86.39;99748.37;1607136;87;21521;-74
2021/12/29 09:25:44;;;;;;;76.12;41.68;;;;;;;0.94;86.36;99744.98;1576914;89;21089;-74
2021/12/29 09:28:13;;;;;;;72.58;37.67;;;;;;;0.96;86.36;99745.43;1578900;89;21104;-75
2021/12/29 09:30:43;;;;;;;67.67;37.17;;;;;;;1.02;86.39;99757.36;1604772;87;21498;-76
2021/12/29 09:33:10;;;;;;;76.02;39.30;;;;;;;1.03;86.37;99756.94;1603626;87;21822;-75
2021/12/29 09:35:37;;;;;;;73.45;38.48;;;;;;;1.05;86.36;99759.05;1605437;87;20917;-74
2021/12/29 09:38:06;;;;;;;74.80;39.00;;;;;;;1.05;86.33;99756.08;1580201;89;21470;-73
2021/12/29 09:40:34;;;;;;;71.28;37.03;;;;;;;1.08;86.34;99758.65;1605600;87;20960;-76
2021/12/29 09:43:00;;;;;;;77.00;41.95;;;;;;;1.07;86.35;99758.22;1607857;87;21064;-73
2021/12/29 09:45:27;;;;;;;77.55;40.70;;;;;;;1.07;86.36;99760.77;1605437;87;21116;-75
2021/12/29 09:47:57;;;;;;;76.67;39.85;;;;;;;1.09;86.36;99760.36;1577675;90;21089;-74
2021/12/29 09:50:22;;;;;;;76.37;40.73;;;;;;;1.09;86.36;99759.50;1600580;87;21036;-77
2021/12/29 09:52:49;;;;;;;75.00;41.37;;;;;;;1.10;86.38;99759.52;1605282;87;21331;-76
2021/12/29 09:55:19;;;;;;;86.67;43.70;;;;;;;1.13;86.43;99753.59;1605273;87;26841;-74
2021/12/29 09:57:50;;;;;;;83.95;43.75;;;;;;;1.15;86.45;99754.05;1576730;89;21523;-74
2021/12/29 10:00:27;;;;;;;72.22;40.80;;;;;;;1.19;86.45;99759.59;1578625;89;20962;-74
2021/12/29 10:02:57;;;;;;;81.70;43.05;;;;;;;1.21;86.47;99759.19;1563709;89;20926;-75
2021/12/29 10:05:27;;;;;;;83.97;43.65;;;;;;;1.26;86.49;99761.34;1575686;89;21037;-73
2021/12/29 10:08:09;;;;;;;80.87;43.08;;;;;;;1.30;86.48;99759.68;1609705;86;21456;-75
2021/12/29 10:10:41;;;;;;;79.92;41.90;;;;;;;1.34;86.51;99762.68;1599107;87;21074;-74
2021/12/29 10:13:08;;;;;;;82.62;42.15;;;;;;;1.37;86.46;99769.07;1556579;90;21093;-76
2021/12/29 10:15:39;;;;;;;81.22;43.52;;;;;;;1.39;86.46;99768.66;1574408;89;21136;-74
2021/12/29 10:18:10;;;;;;;77.92;42.03;;;;;;;1.41;86.46;99771.22;1579044;89;21599;-74
2021/12/29 10:20:56;;;;;;;79.30;40.55;;;;;;;1.43;86.44;99776.76;1579810;89;21169;-74
2021/12/29 10:23:28;;;;;;;82.42;40.92;;;;;;;1.45;86.42;99781.86;1577679;89;21096;-74
2021/12/29 10:25:59;;;;;;;78.07;40.78;;;;;;;1.45;86.42;99785.27;1557750;90;21046;-75
2021/12/29 10:28:32;;;;;;;68.42;38.95;;;;;;;1.46;86.44;99783.15;1577780;89;21842;-73
2021/12/29 10:31:06;;;;;;;79.67;42.27;;;;;;;1.48;86.46;99776.80;1550590;90;21106;-75
2021/12/29 10:33:43;;;;;;;73.75;39.27;;;;;;;1.48;86.50;99780.20;1552612;90;21100;-73
2021/12/29 10:36:29;;;;;;;76.15;40.50;;;;;;;1.49;86.47;99784.87;1547502;90;21122;-75
2021/12/29 10:39:03;;;;;;;83.90;42.90;;;;;;;1.49;86.48;99783.17;1554616;90;21130;-75
2021/12/29 10:41:33;;;;;;;80.07;41.70;;;;;;;1.51;86.51;99783.19;1544989;89;21435;-76
2021/12/29 10:44:05;;;;;;;81.65;43.98;;;;;;;1.53;86.51;99791.27;1598282;88;20953;-76
2021/12/29 10:46:33;;;;;;;83.15;44.25;;;;;;;1.54;86.54;99798.49;1618447;86;20930;-77
2021/12/29 10:49:04;;;;;;;87.05;44.05;;;;;;;1.57;86.57;99803.58;1622947;86;20974;-77
2021/12/29 10:51:36;;;;;;;79.05;41.88;;;;;;;1.58;86.58;99807.83;1618989;86;20975;-77
2021/12/29 10:54:15;;;;;;;82.47;44.60;;;;;;;1.60;86.55;99813.38;1616307;86;21744;-77
2021/12/29 10:56:47;;;;;;;84.90;42.65;;;;;;;1.61;86.56;99811.67;1620575;86;21403;-77
2021/12/29 10:59:20;;;;;;;78.37;41.13;;;;;;;1.62;86.54;99809.56;1616035;86;20901;-77
2021/12/29 11:01:49;;;;;;;74.20;41.60;;;;;;;1.62;86.52;99811.69;1618495;86;21578;-77
2021/12/29 11:04:17;;;;;;;77.20;42.60;;;;;;;1.62;86.54;99807.02;1617752;86;21168;-77
2021/12/29 11:06:47;;;;;;;85.05;45.05;;;;;;;1.62;86.53;99809.14;1615598;86;21065;-77
2021/12/29 11:09:16;;;;;;;78.15;42.85;;;;;;;1.63;86.56;99811.27;1616796;86;21553;-77
2021/12/29 11:11:45;;;;;;;75.40;42.23;;;;;;;1.64;86.58;99805.33;1601496;88;21409;-77
2021/12/29 11:14:21;;;;;;;77.45;41.95;;;;;;;1.66;86.58;99808.32;1618317;86;21679;-76
2021/12/29 11:17:02;;;;;;;81.55;43.48;;;;;;;1.68;86.59;99802.37;1616817;86;21616;-75
2021/12/29 11:19:29;;;;;;;89.90;44.08;;;;;;;1.71;86.59;99807.08;1619247;86;21109;-76
2021/12/29 11:22:11;;;;;;;79.03;41.83;;;;;;;1.72;86.56;99812.61;1617775;86;21529;-75
2021/12/29 11:24:38;;;;;;;79.55;41.25;;;;;;;1.74;86.60;99814.75;1616572;86;21499;-75
2021/12/29 11:27:15;;;;;;;78.33;41.53;;;;;;;1.75;86.59;99811.35;1617307;86;21485;-76